Terminal Aerodrome Forecast
Issued by NWS

Current Version | Previous Version | Text Only | Print | Product List | Glossary On
Versions: 1 2 3 4 5 6 7 8 9 10 11 12 13 14 15 16
951
FTUS44 KBMX 251132
TAFEET
TAF
KEET 251132Z 2512/2612 15003KT P6SM SKC
     FM251800 14005KT P6SM VCTS SCT050CB SCT250
     FM260100 00000KT P6SM SCT250=

USA.gov is the U.S. government's official web portal to all federal, state and local government web resources and services.